Time;durP1;ratioP1;P1;durP2;ratioP2;P2;SDS_P1;SDS_P2;PMS_P1;PMS_P2;Temp;Humidity;BMP_temperature;BMP_pressure;BME280_temperature;BME280_humidity;BME280_pressure;Samples;Min_cycle;Max_cycle;Signal;HPM_P1;HPM_P2
2022/11/06 00:00:42;;;;;;;10.00;3.87;;;;;;;17.49;54.34;101389.41;5050576;28;20092;-71
2022/11/06 00:03:08;;;;;;;11.17;4.30;;;;;;;17.35;54.82;101397.75;5049595;28;20028;-70
2022/11/06 00:08:33;;;;;;;11.73;4.73;;;;;;;17.67;53.30;101388.88;5051741;28;20128;-70
2022/11/06 00:10:59;;;;;;;8.00;3.53;;;;;;;17.00;55.63;101389.94;5050242;28;20080;-70
2022/11/06 00:13:24;;;;;;;10.33;4.13;;;;;;;17.01;54.83;101377.59;5047667;28;20116;-70
2022/11/06 00:15:50;;;;;;;15.30;4.33;;;;;;;17.44;54.67;101379.84;5081743;28;20036;-70
2022/11/06 00:18:16;;;;;;;15.60;4.30;;;;;;;17.85;53.30;101370.69;5050999;28;20025;-70
2022/11/06 00:20:41;;;;;;;6.37;3.60;;;;;;;18.18;52.35;101378.47;5048802;28;20021;-70
2022/11/06 00:23:06;;;;;;;11.10;4.40;;;;;;;17.25;54.41;101366.31;5077409;28;20518;-70
2022/11/06 00:25:32;;;;;;;10.40;4.67;;;;;;;17.01;55.63;101362.63;5074035;28;20033;-70
2022/11/06 00:27:57;;;;;;;7.30;3.67;;;;;;;17.62;54.58;101356.41;5050537;28;20025;-70
2022/11/06 00:30:22;;;;;;;9.57;4.00;;;;;;;17.67;53.68;101351.84;5050729;28;20106;-70
2022/11/06 00:32:48;;;;;;;10.33;3.87;;;;;;;16.79;56.36;101368.47;5048543;28;20438;-70
2022/11/06 00:35:13;;;;;;;10.23;3.73;;;;;;;17.19;54.62;101365.66;5047247;28;20524;-70
2022/11/06 00:37:39;;;;;;;13.97;4.23;;;;;;;18.24;52.67;101362.38;5049434;28;20116;-70
2022/11/06 00:40:05;;;;;;;7.67;3.60;;;;;;;17.64;53.79;101370.47;5048053;28;20390;-70
2022/11/06 00:42:30;;;;;;;8.73;4.03;;;;;;;18.28;51.64;101362.22;5049482;28;20025;-70
2022/11/06 00:44:55;;;;;;;8.23;4.07;;;;;;;17.63;53.94;101366.09;5049960;28;20573;-70
2022/11/06 00:47:21;;;;;;;11.00;4.03;;;;;;;17.48;54.33;101359.50;5050244;28;20017;-70
2022/11/06 00:49:46;;;;;;;14.33;4.20;;;;;;;18.53;50.64;101368.47;5049320;28;20035;-70
2022/11/06 00:52:12;;;;;;;12.03;4.37;;;;;;;17.54;54.05;101369.00;5047675;28;20028;-70
2022/11/06 00:54:37;;;;;;;12.70;3.83;;;;;;;17.33;55.21;101368.75;5049409;28;20028;-70
2022/11/06 00:57:03;;;;;;;8.00;4.00;;;;;;;16.82;57.59;101370.16;5050365;28;20413;-70
2022/11/06 00:59:28;;;;;;;11.63;4.20;;;;;;;17.90;53.21;101358.19;5048961;28;20509;-70
2022/11/06 01:01:53;;;;;;;15.67;4.00;;;;;;;17.42;54.35;101357.91;5048152;28;20576;-70
2022/11/06 01:04:21;;;;;;;6.70;3.40;;;;;;;17.98;53.89;101361.47;5048310;28;20068;-70
2022/11/06 01:06:49;;;;;;;16.67;3.80;;;;;;;17.92;53.24;101357.25;5050720;28;20108;-71
2022/11/06 01:09:17;;;;;;;9.43;3.67;;;;;;;17.44;54.88;101356.06;5049274;28;20025;-70
2022/11/06 01:11:46;;;;;;;8.83;3.60;;;;;;;17.09;56.23;101371.19;5049341;28;20037;-70
2022/11/06 01:14:13;;;;;;;9.60;3.53;;;;;;;17.39;55.96;101363.28;5048817;28;20071;-70
2022/11/06 01:16:39;;;;;;;12.50;3.17;;;;;;;17.69;54.44;101365.88;5047288;28;20668;-70
2022/11/06 01:19:05;;;;;;;11.30;4.00;;;;;;;17.36;54.72;101363.34;5049312;28;20091;-70
2022/11/06 01:21:34;;;;;;;18.07;3.57;;;;;;;17.60;54.03;101355.63;5047950;28;20013;-70
2022/11/06 01:24:05;;;;;;;6.27;3.23;;;;;;;18.30;52.99;101343.69;5048296;28;20037;-70
2022/11/06 01:26:31;;;;;;;6.17;3.70;;;;;;;16.71;56.56;101344.06;5049399;28;20025;-70
2022/11/06 01:28:57;;;;;;;7.57;3.10;;;;;;;17.59;55.12;101333.59;5046798;28;20024;-70
2022/11/06 01:31:25;;;;;;;8.53;3.97;;;;;;;18.28;53.42;101332.25;5047990;28;20052;-70
2022/11/06 01:33:51;;;;;;;7.87;3.27;;;;;;;17.65;54.51;101337.81;5048560;28;20024;-70
2022/11/06 01:36:19;;;;;;;10.23;3.40;;;;;;;16.86;57.60;101339.28;5048478;28;20096;-70
2022/11/06 01:38:50;;;;;;;9.40;3.60;;;;;;;16.90;56.50;101338.31;5048625;28;20028;-70
2022/11/06 01:41:21;;;;;;;15.30;5.50;;;;;;;17.93;53.50;101336.97;5049126;28;20104;-70
2022/11/06 01:43:55;;;;;;;18.40;5.70;;;;;;;17.62;53.94;101338.75;5046777;28;20464;-70
2022/11/06 01:46:24;;;;;;;8.17;3.63;;;;;;;16.60;57.73;101335.56;5050402;28;20041;-70
2022/11/06 01:49:14;;;;;;;11.67;4.43;;;;;;;17.59;55.07;101333.59;5050446;28;20025;-70
2022/11/06 01:51:46;;;;;;;16.37;3.40;;;;;;;17.56;55.63;101332.84;5074477;28;20486;-70
2022/11/06 01:54:13;;;;;;;7.47;3.22;;;;;;;17.06;58.20;101323.75;5049873;28;20033;-70
2022/11/06 01:56:39;;;;;;;10.93;3.30;;;;;;;17.80;56.30;101331.16;5050478;28;20054;-69
2022/11/06 01:59:08;;;;;;;14.07;3.50;;;;;;;17.01;57.68;101327.41;5047382;28;20207;-70
2022/11/06 02:01:33;;;;;;;10.67;3.50;;;;;;;17.50;56.05;101322.44;5049557;28;20032;-69
2022/11/06 02:04:19;;;;;;;12.20;3.63;;;;;;;16.35;61.56;101316.88;5079504;28;20025;-70
2022/11/06 02:06:46;;;;;;;12.13;3.77;;;;;;;16.67;60.29;101323.94;5032236;28;20029;-70
2022/11/06 02:09:12;;;;;;;13.63;3.53;;;;;;;16.88;61.37;101329.53;5050264;28;20436;-70
2022/11/06 02:11:40;;;;;;;11.97;3.53;;;;;;;16.92;59.99;101324.13;5045586;28;20036;-69
2022/11/06 02:14:18;;;;;;;10.67;3.93;;;;;;;16.93;60.24;101317.09;5028548;28;20382;-70
2022/11/06 02:17:17;;;;;;;9.47;3.27;;;;;;;17.44;57.94;101312.94;5049025;28;20021;-71
2022/11/06 02:20:09;;;;;;;8.33;3.70;;;;;;;16.61;61.45;101316.19;5047674;28;20029;-71
2022/11/06 02:23:05;;;;;;;17.63;3.37;;;;;;;16.94;61.02;101324.13;5048647;28;20021;-71
2022/11/06 02:26:08;;;;;;;8.00;3.50;;;;;;;16.62;63.21;101312.63;5049130;28;20021;-70
2022/11/06 02:28:35;;;;;;;14.17;4.17;;;;;;;17.92;56.14;101309.66;5068601;28;20036;-70
2022/11/06 02:31:07;;;;;;;8.97;3.20;;;;;;;17.03;59.33;101304.47;5056113;28;20033;-70
2022/11/06 02:33:36;;;;;;;10.77;3.67;;;;;;;17.02;59.58;101298.34;5082477;28;20025;-70
2022/11/06 02:36:09;;;;;;;11.53;3.90;;;;;;;17.32;59.22;101302.75;5051125;28;20013;-70
2022/11/06 02:38:40;;;;;;;15.57;3.38;;;;;;;17.51;58.22;101308.31;5051822;28;20071;-70
2022/11/06 02:41:09;;;;;;;12.97;3.30;;;;;;;17.54;57.40;101313.50;5050382;28;20071;-70
2022/11/06 02:43:38;;;;;;;9.67;3.47;;;;;;;17.51;56.63;101309.16;5051235;28;20033;-70
2022/11/06 02:46:25;;;;;;;8.00;3.53;;;;;;;17.79;56.24;101305.63;5053268;28;20021;-70
2022/11/06 02:49:14;;;;;;;8.67;3.53;;;;;;;17.13;57.73;101298.88;5053075;28;20497;-70
2022/11/06 02:51:46;;;;;;;8.47;3.80;;;;;;;16.77;60.32;101295.50;5048152;28;20549;-70
2022/11/06 02:54:13;;;;;;;11.68;4.38;;;;;;;16.74;60.51;101283.25;5050545;28;20033;-69
2022/11/06 02:56:43;;;;;;;11.90;4.40;;;;;;;16.63;62.37;101274.78;5052990;28;20029;-70
2022/11/06 02:59:34;;;;;;;13.10;4.60;;;;;;;16.98;62.41;101283.50;5051594;28;20500;-70
2022/11/06 03:02:07;;;;;;;11.50;4.07;;;;;;;16.35;65.33;101279.94;5050067;28;20021;-70
2022/11/06 03:04:39;;;;;;;16.97;4.90;;;;;;;18.19;57.11;101269.06;5053085;28;20031;-70
2022/11/06 03:07:13;;;;;;;12.27;4.57;;;;;;;17.09;59.89;101286.69;5050454;28;20030;-70
2022/11/06 03:09:39;;;;;;;9.73;3.70;;;;;;;17.72;58.88;101302.34;5052159;28;20096;-70
2022/11/06 03:12:57;;;;;;;12.27;5.47;;;;;;;17.32;59.32;101293.03;5049256;28;20029;-70
2022/11/06 03:15:31;;;;;;;14.20;5.00;;;;;;;16.15;63.00;101291.91;5048868;28;20041;-69
2022/11/06 03:18:11;;;;;;;14.00;3.90;;;;;;;16.69;61.64;101276.38;5052224;28;20528;-70
2022/11/06 03:21:21;;;;;;;10.27;4.17;;;;;;;16.90;60.68;101261.75;5051060;28;20493;-70
2022/11/06 03:23:54;;;;;;;9.17;4.27;;;;;;;17.44;58.30;101268.84;5025099;28;20022;-69
2022/11/06 03:26:46;;;;;;;11.30;4.20;;;;;;;17.79;57.38;101264.22;4993165;28;20037;-70
2022/11/06 03:29:15;;;;;;;8.23;3.97;;;;;;;17.54;57.00;101265.94;5038975;28;20514;-70
2022/11/06 03:31:55;;;;;;;11.50;4.33;;;;;;;17.69;57.02;101260.13;5048503;28;20032;-70
2022/11/06 03:34:45;;;;;;;13.87;5.83;;;;;;;17.76;58.42;101255.50;5048852;28;20032;-70
2022/11/06 03:37:22;;;;;;;13.50;4.60;;;;;;;17.70;58.28;101255.72;5066209;28;20041;-70
2022/11/06 03:39:52;;;;;;;18.00;6.93;;;;;;;18.19;57.33;101253.22;5047232;28;20036;-70
2022/11/06 03:42:24;;;;;;;15.03;4.87;;;;;;;17.94;58.03;101248.75;5049956;28;20098;-70
2022/11/06 03:45:01;;;;;;;11.47;4.73;;;;;;;16.97;59.64;101255.38;5051921;28;20017;-70
2022/11/06 03:47:39;;;;;;;14.70;4.43;;;;;;;17.80;57.77;101242.16;5050060;28;20036;-70
2022/11/06 03:50:13;;;;;;;14.97;4.90;;;;;;;17.92;58.36;101240.03;5049990;28;20053;-69
2022/11/06 03:52:43;;;;;;;21.33;5.03;;;;;;;18.12;57.02;101242.84;5048484;28;20032;-70
2022/11/06 03:55:23;;;;;;;10.17;4.40;;;;;;;17.81;57.50;101243.00;5051002;28;20040;-70
2022/11/06 03:58:10;;;;;;;6.63;3.53;;;;;;;18.35;54.64;101243.81;5050132;28;20025;-70
2022/11/06 04:00:39;;;;;;;13.33;4.23;;;;;;;17.81;55.33;101243.88;5030712;28;20037;-70
2022/11/06 04:03:31;;;;;;;12.20;4.20;;;;;;;18.14;56.22;101224.28;5044157;28;20033;-70
2022/11/06 04:06:08;;;;;;;6.13;4.00;;;;;;;17.27;57.82;101228.91;5082780;28;20152;-70
2022/11/06 04:14:08;;;;;;;10.93;3.70;;;;;;;18.20;56.91;101212.63;5043167;28;20047;-70
2022/11/06 04:16:48;;;;;;;10.83;4.23;;;;;;;18.27;54.83;101204.41;5051187;28;20143;-70
2022/11/06 04:19:16;;;;;;;12.13;4.40;;;;;;;17.95;56.26;101198.47;5050097;28;20493;-70
2022/11/06 04:22:09;;;;;;;13.20;4.67;;;;;;;18.45;54.57;101202.88;5048179;28;20032;-70
2022/11/06 04:27:42;;;;;;;8.40;3.70;;;;;;;17.46;57.54;101206.28;5051542;28;20231;-70
2022/11/06 04:30:09;;;;;;;14.40;4.80;;;;;;;18.08;55.84;101188.34;5051405;28;20028;-70
2022/11/06 04:33:19;;;;;;;14.20;4.10;;;;;;;17.88;56.65;101190.78;5049210;28;20056;-70
2022/11/06 04:36:16;;;;;;;10.20;4.30;;;;;;;17.52;58.08;101199.06;5011604;28;20406;-70
2022/11/06 04:38:47;;;;;;;10.97;4.10;;;;;;;17.87;56.33;101189.06;5022923;28;20130;-70
2022/11/06 04:41:24;;;;;;;9.13;4.43;;;;;;;18.05;56.49;101191.09;5049051;28;20056;-69
2022/11/06 04:44:06;;;;;;;12.23;5.20;;;;;;;17.95;57.36;101187.03;5053893;28;20094;-70
2022/11/06 04:46:56;;;;;;;11.83;4.20;;;;;;;18.64;54.33;101180.97;5048733;28;20124;-70
2022/11/06 04:49:23;;;;;;;10.27;3.97;;;;;;;18.21;55.28;101178.16;5030073;28;20116;-70
2022/11/06 04:51:49;;;;;;;12.10;4.00;;;;;;;18.68;54.03;101176.44;5052739;28;20056;-70
2022/11/06 04:54:15;;;;;;;15.97;4.40;;;;;;;18.03;55.67;101179.69;5050135;28;20497;-70
2022/11/06 04:56:40;;;;;;;10.00;4.10;;;;;;;18.88;52.30;101178.34;5049107;28;20431;-70
2022/11/06 04:59:06;;;;;;;9.07;3.77;;;;;;;19.54;51.71;101166.84;5050668;28;20053;-70
2022/11/06 05:01:32;;;;;;;9.93;4.23;;;;;;;18.08;56.18;101177.75;5046948;28;20389;-70
2022/11/06 05:03:57;;;;;;;8.93;3.70;;;;;;;18.35;56.05;101185.59;5048133;28;20036;-70
2022/11/06 05:06:23;;;;;;;13.63;4.73;;;;;;;18.30;57.22;101176.97;5049708;28;20029;-69
2022/11/06 05:08:48;;;;;;;10.40;3.60;;;;;;;18.46;56.01;101171.97;5048869;28;20060;-69
2022/11/06 05:11:14;;;;;;;10.03;3.70;;;;;;;18.38;55.75;101166.97;5048302;28;20576;-69
2022/11/06 05:13:39;;;;;;;11.50;4.30;;;;;;;18.44;56.42;101172.03;5048771;28;20037;-69
2022/11/06 05:16:04;;;;;;;15.13;4.23;;;;;;;18.07;58.14;101154.84;5048935;28;20037;-69
2022/11/06 05:18:30;;;;;;;9.97;4.23;;;;;;;18.17;57.48;101155.38;5048732;28;20033;-69
2022/11/06 05:23:44;;;;;;;14.53;3.50;;;;;;;18.53;57.20;101159.34;5050817;28;20060;-69
2022/11/06 05:26:09;;;;;;;7.57;3.77;;;;;;;18.52;56.70;101160.28;5050618;28;20474;-69
2022/11/06 05:28:35;;;;;;;7.27;3.30;;;;;;;17.64;57.95;101143.16;5048323;28;20102;-69
2022/11/06 05:31:00;;;;;;;9.00;3.60;;;;;;;17.88;59.01;101145.84;5047049;28;20171;-69
2022/11/06 05:33:25;;;;;;;9.30;3.43;;;;;;;17.75;60.68;101135.69;5047423;28;20040;-69
2022/11/06 05:35:51;;;;;;;10.17;3.50;;;;;;;17.62;59.79;101132.59;5047470;28;20025;-69
2022/11/06 05:38:16;;;;;;;14.20;4.33;;;;;;;17.76;61.35;101129.50;5048862;28;20037;-68
2022/11/06 05:40:42;;;;;;;9.47;4.00;;;;;;;17.22;63.52;101138.38;5048008;28;20029;-69
2022/11/06 05:43:07;;;;;;;11.03;3.70;;;;;;;17.04;64.29;101134.56;5048274;28;20086;-69
2022/11/06 05:45:33;;;;;;;11.87;4.23;;;;;;;17.44;61.91;101131.44;5050177;28;20035;-69
2022/11/06 05:47:58;;;;;;;13.80;3.93;;;;;;;16.44;65.60;101130.22;5049612;28;20386;-68
2022/11/06 05:50:24;;;;;;;9.80;3.30;;;;;;;17.70;60.31;101119.13;5047440;28;20043;-69
2022/11/06 05:52:49;;;;;;;9.13;3.93;;;;;;;17.35;61.89;101112.41;5048961;28;20425;-68
2022/11/06 05:55:15;;;;;;;6.90;3.77;;;;;;;16.32;66.60;101129.69;5048215;28;20028;-69
2022/11/06 05:57:41;;;;;;;10.63;4.03;;;;;;;16.99;65.28;101110.09;5048965;28;20043;-69
2022/11/06 06:00:09;;;;;;;12.03;3.40;;;;;;;17.38;61.54;101107.91;5049542;28;20072;-68
2022/11/06 06:02:35;;;;;;;11.37;4.30;;;;;;;17.61;62.62;101119.44;5051312;28;20414;-69
2022/11/06 06:05:01;;;;;;;8.27;3.40;;;;;;;17.71;60.54;101115.56;5052969;28;20040;-69
2022/11/06 06:07:26;;;;;;;11.73;3.83;;;;;;;17.36;62.90;101109.72;5085019;28;20037;-69
2022/11/06 06:09:51;;;;;;;8.90;3.93;;;;;;;17.72;60.52;101117.31;5052626;28;20481;-69
2022/11/06 06:12:17;;;;;;;10.10;3.10;;;;;;;17.44;62.06;101105.03;5051614;28;20078;-69
2022/11/06 06:14:42;;;;;;;9.87;4.10;;;;;;;18.11;59.94;101108.84;5051039;28;20082;-69
2022/11/06 06:17:08;;;;;;;9.97;4.10;;;;;;;17.66;59.53;101111.38;5052375;28;20036;-68
2022/11/06 06:19:33;;;;;;;10.63;3.57;;;;;;;17.95;59.96;101113.00;5052412;28;20037;-69
2022/11/06 06:21:58;;;;;;;10.23;3.20;;;;;;;18.33;57.93;101123.06;5052814;28;20560;-69
2022/11/06 06:24:24;;;;;;;6.23;3.50;;;;;;;17.52;60.12;101114.50;5053814;28;20037;-69
2022/11/06 06:26:49;;;;;;;9.20;3.23;;;;;;;17.53;61.44;101111.78;5051527;28;20037;-69
2022/11/06 06:29:15;;;;;;;11.73;3.43;;;;;;;17.61;61.47;101114.16;5051794;28;20033;-68
2022/11/06 06:31:40;;;;;;;11.63;3.63;;;;;;;17.71;60.17;101118.22;5052780;28;20029;-69
2022/11/06 06:34:06;;;;;;;11.97;3.53;;;;;;;18.22;58.69;101099.69;5051946;28;20070;-69
2022/11/06 06:36:31;;;;;;;12.27;3.93;;;;;;;17.68;60.91;101109.53;5048885;28;20067;-69
2022/11/06 06:38:56;;;;;;;9.60;3.57;;;;;;;17.89;58.65;101097.34;5049246;28;20127;-69
2022/11/06 06:41:22;;;;;;;11.23;3.60;;;;;;;18.26;58.21;101096.84;5050472;28;20070;-69
2022/11/06 06:43:48;;;;;;;9.83;3.20;;;;;;;18.45;56.47;101083.78;5050553;28;20017;-69
2022/11/06 06:46:14;;;;;;;9.07;3.47;;;;;;;17.93;59.74;101077.81;5049856;28;20040;-69
2022/11/06 06:48:39;;;;;;;16.63;3.77;;;;;;;17.70;59.59;101070.69;5051482;28;20025;-69
2022/11/06 06:51:06;;;;;;;15.93;4.17;;;;;;;17.56;61.72;101076.47;5049297;28;20064;-70
2022/11/06 06:53:32;;;;;;;10.37;3.70;;;;;;;17.54;60.26;101079.16;5083293;28;20032;-69
2022/11/06 06:55:59;;;;;;;6.17;2.90;;;;;;;18.40;56.71;101087.53;5051583;28;20040;-69
2022/11/06 06:58:25;;;;;;;6.93;2.60;;;;;;;18.89;55.48;101075.00;5050116;28;20048;-69
2022/11/06 07:00:50;;;;;;;8.07;2.83;;;;;;;18.94;54.73;101073.00;5050173;28;20363;-70
2022/11/06 07:03:16;;;;;;;12.50;3.13;;;;;;;18.52;54.90;101065.00;5053042;28;20091;-70
2022/11/06 07:05:41;;;;;;;10.80;2.70;;;;;;;18.43;55.73;101077.66;5052546;28;20134;-70
2022/11/06 07:08:06;;;;;;;11.70;2.73;;;;;;;18.33;54.74;101076.31;5050794;28;20029;-69
2022/11/06 07:10:32;;;;;;;6.17;2.77;;;;;;;18.37;55.10;101067.34;5051583;28;20045;-70
2022/11/06 07:13:02;;;;;;;7.53;2.27;;;;;;;18.60;53.75;101063.78;5049372;28;20423;-69
2022/11/06 07:15:27;;;;;;;7.33;2.20;;;;;;;18.85;53.74;101061.91;5051769;28;20044;-69
2022/11/06 07:17:53;;;;;;;10.60;3.07;;;;;;;18.18;55.95;101071.63;5052618;28;20025;-70
2022/11/06 07:20:18;;;;;;;5.20;2.40;;;;;;;17.81;57.16;101063.22;5051011;28;20029;-70
2022/11/06 07:22:43;;;;;;;6.93;2.97;;;;;;;18.14;55.47;101061.13;5082653;28;20043;-70
2022/11/06 07:25:09;;;;;;;4.47;2.30;;;;;;;18.07;55.64;101070.22;5049036;28;20051;-69
2022/11/06 07:27:34;;;;;;;7.30;2.90;;;;;;;17.79;57.59;101070.34;5050263;28;20039;-69
2022/11/06 07:30:00;;;;;;;8.67;2.80;;;;;;;17.91;57.01;101071.69;5050039;28;20067;-69
2022/11/06 07:32:25;;;;;;;13.13;2.73;;;;;;;18.75;53.91;101067.59;5051947;28;20029;-69
2022/11/06 07:34:50;;;;;;;9.33;2.50;;;;;;;19.26;52.66;101062.00;5051191;28;20033;-70
2022/11/06 07:37:16;;;;;;;9.27;3.50;;;;;;;18.44;54.48;101058.22;5049600;28;20512;-70
2022/11/06 07:39:41;;;;;;;5.13;2.97;;;;;;;18.72;53.04;101057.09;5049122;28;20028;-70
2022/11/06 07:42:07;;;;;;;8.33;2.70;;;;;;;17.57;56.43;101064.97;5050646;28;20028;-70
2022/11/06 07:44:32;;;;;;;5.53;1.93;;;;;;;17.88;56.57;101058.59;5050302;28;20036;-70
2022/11/06 07:46:58;;;;;;;9.57;2.03;;;;;;;17.84;56.69;101064.91;5049016;28;20024;-70
2022/11/06 07:49:23;;;;;;;9.13;2.20;;;;;;;17.87;55.45;101062.13;5040999;28;20056;-70
2022/11/06 07:51:48;;;;;;;6.30;1.90;;;;;;;17.91;56.46;101047.88;5082440;28;20119;-70
2022/11/06 07:54:14;;;;;;;8.50;2.37;;;;;;;18.57;53.94;101041.84;5049853;28;20175;-70
2022/11/06 07:56:39;;;;;;;7.00;2.20;;;;;;;18.67;55.23;101048.50;5083302;28;20112;-70
2022/11/06 07:59:04;;;;;;;4.50;1.98;;;;;;;18.61;54.22;101043.44;5082826;28;20098;-70
2022/11/06 08:01:30;;;;;;;7.93;2.20;;;;;;;18.41;55.83;101042.47;5048401;28;20041;-70
2022/11/06 08:03:55;;;;;;;9.07;2.20;;;;;;;18.36;55.04;101044.44;5047899;28;20040;-70
2022/11/06 08:06:21;;;;;;;10.13;2.17;;;;;;;18.35;55.01;101037.41;5050862;28;20091;-70
2022/11/06 08:08:46;;;;;;;6.77;2.23;;;;;;;17.75;56.01;101051.09;5051336;28;20047;-70
2022/11/06 08:11:12;;;;;;;4.60;2.00;;;;;;;18.22;54.75;101060.00;5048005;28;20071;-71
2022/11/06 08:13:38;;;;;;;12.30;2.30;;;;;;;18.45;55.31;101053.78;5046796;28;20029;-70
2022/11/06 08:16:05;;;;;;;6.40;1.83;;;;;;;18.52;55.43;101044.69;5049660;28;20632;-70
2022/11/06 08:18:31;;;;;;;7.32;2.20;;;;;;;18.14;56.62;101055.84;5049125;28;20587;-71
2022/11/06 08:20:56;;;;;;;6.97;2.60;;;;;;;18.93;53.54;101038.66;5049672;28;20024;-71
2022/11/06 08:23:22;;;;;;;16.13;2.38;;;;;;;19.01;54.29;101041.84;5049265;28;20033;-71
2022/11/06 08:25:47;;;;;;;6.88;2.58;;;;;;;18.92;53.78;101026.34;5050658;28;20397;-71
2022/11/06 08:28:12;;;;;;;6.20;1.73;;;;;;;18.58;54.35;101035.66;5045578;28;20036;-71
2022/11/06 08:30:38;;;;;;;8.60;2.30;;;;;;;18.74;55.26;101034.09;5055708;28;20062;-70
2022/11/06 08:33:07;;;;;;;13.30;2.07;;;;;;;17.88;55.84;101048.00;5048491;28;20162;-71
2022/11/06 08:35:35;;;;;;;9.87;2.20;;;;;;;18.37;55.05;101037.34;5053607;28;20028;-70
2022/11/06 08:38:01;;;;;;;11.73;3.23;;;;;;;18.47;55.38;101025.47;5040796;28;20082;-70
2022/11/06 08:40:26;;;;;;;7.77;2.10;;;;;;;18.71;55.75;101033.34;5058130;28;20477;-70
2022/11/06 08:42:52;;;;;;;11.13;2.60;;;;;;;18.34;57.77;101024.25;5042741;28;20072;-69
2022/11/06 08:45:17;;;;;;;11.30;2.90;;;;;;;18.35;58.16;101018.88;5046441;28;20029;-69
2022/11/06 08:47:43;;;;;;;13.87;2.53;;;;;;;18.56;57.25;101014.53;5036467;28;20748;-68
2022/11/06 08:50:08;;;;;;;9.50;3.57;;;;;;;18.80;56.24;101014.44;5029531;28;20029;-69
2022/11/06 08:52:34;;;;;;;9.83;2.77;;;;;;;18.18;56.69;101002.84;5046759;28;20032;-69
2022/11/06 08:54:59;;;;;;;7.40;3.00;;;;;;;18.30;58.10;100999.72;5051699;28;20039;-69
2022/11/06 08:57:24;;;;;;;9.33;2.60;;;;;;;18.41;57.72;101000.13;5050108;28;20124;-69
2022/11/06 08:59:50;;;;;;;8.13;2.63;;;;;;;18.08;57.70;100992.59;5049097;28;20049;-69
2022/11/06 09:02:15;;;;;;;10.40;3.40;;;;;;;18.97;55.79;100992.56;5048975;28;20461;-69
2022/11/06 09:04:42;;;;;;;9.63;2.90;;;;;;;18.74;57.22;100991.72;5048262;28;20080;-69
2022/11/06 09:07:08;;;;;;;5.67;2.90;;;;;;;18.68;55.37;100976.09;5044427;28;20415;-68
2022/11/06 09:09:33;;;;;;;7.07;3.23;;;;;;;18.94;56.64;100982.97;5038300;28;20033;-69
2022/11/06 09:12:00;;;;;;;11.43;3.50;;;;;;;19.27;55.98;100978.94;5048345;28;20040;-70
2022/11/06 09:14:25;;;;;;;12.40;2.83;;;;;;;19.58;54.36;100969.63;5048422;28;20540;-69
2022/11/06 09:16:51;;;;;;;4.70;2.20;;;;;;;17.88;60.06;100974.81;5048625;28;20028;-69
2022/11/06 09:19:17;;;;;;;6.57;2.47;;;;;;;18.07;57.98;100964.44;5046303;28;20494;-70
2022/11/06 09:21:42;;;;;;;5.00;1.95;;;;;;;19.33;56.15;100962.78;5047667;28;20474;-70
2022/11/06 09:24:08;;;;;;;8.55;2.60;;;;;;;19.41;55.19;100959.75;5049983;28;20091;-70
2022/11/06 09:26:33;;;;;;;7.88;2.35;;;;;;;18.91;56.10;100964.56;5050543;28;20031;-69
2022/11/06 09:28:58;;;;;;;6.15;2.55;;;;;;;18.33;56.75;100959.00;5048216;28;20034;-70
2022/11/06 09:31:24;;;;;;;10.30;2.65;;;;;;;18.70;55.74;100966.31;5081203;28;20501;-70
2022/11/06 09:33:50;;;;;;;8.80;2.53;;;;;;;19.15;54.70;100957.34;5048708;28;20064;-70
2022/11/06 09:36:15;;;;;;;7.55;2.47;;;;;;;19.42;54.19;100956.19;5053003;28;20107;-69
2022/11/06 09:38:41;;;;;;;6.95;2.10;;;;;;;19.11;54.08;100968.13;5053542;28;20112;-73
2022/11/06 09:41:20;;;;;;;6.72;1.45;;;;;;;19.39;53.90;100951.88;5053342;28;20044;-69
2022/11/06 09:43:51;;;;;;;8.80;2.15;;;;;;;19.34;52.96;100964.47;5054315;28;20061;-69
2022/11/06 09:46:19;;;;;;;9.63;2.75;;;;;;;18.87;53.62;100964.75;5052889;28;20040;-70
2022/11/06 09:48:49;;;;;;;6.57;1.98;;;;;;;19.02;54.89;100964.09;5050344;28;20060;-69
2022/11/06 09:51:33;;;;;;;10.43;2.17;;;;;;;19.49;53.23;100947.91;5052674;28;20106;-70
2022/11/06 09:54:22;;;;;;;6.38;2.17;;;;;;;19.67;51.79;100950.63;5052626;28;20119;-71
2022/11/06 09:56:51;;;;;;;5.30;1.95;;;;;;;19.14;54.50;100944.19;5051808;28;20025;-71
2022/11/06 09:59:19;;;;;;;4.97;1.73;;;;;;;19.41;53.47;100939.44;5051691;28;20106;-71
2022/11/06 10:01:50;;;;;;;3.83;1.77;;;;;;;20.00;51.52;100934.06;5050936;28;20087;-71
2022/11/06 10:05:08;;;;;;;7.20;2.10;;;;;;;19.91;52.62;100922.13;5052081;28;20040;-72
2022/11/06 10:07:36;;;;;;;5.13;2.28;;;;;;;18.95;54.01;100929.06;4998514;28;20087;-71
2022/11/06 10:10:05;;;;;;;6.45;1.63;;;;;;;18.91;54.58;100930.13;5082430;28;20589;-71
2022/11/06 10:12:44;;;;;;;6.82;2.13;;;;;;;20.04;51.30;100932.16;5051546;28;20541;-71
2022/11/06 10:15:26;;;;;;;9.75;2.22;;;;;;;19.62;51.84;100926.97;5085060;28;20032;-71
2022/11/06 10:18:15;;;;;;;7.00;1.58;;;;;;;18.99;53.39;100932.47;5051705;28;20024;-71
2022/11/06 10:20:46;;;;;;;7.45;2.03;;;;;;;19.40;52.99;100927.09;5051937;28;20126;-72
2022/11/06 10:23:24;;;;;;;8.75;2.13;;;;;;;20.10;51.03;100911.47;5051192;28;20029;-70
2022/11/06 10:25:52;;;;;;;9.43;1.98;;;;;;;20.73;51.04;100910.19;5052295;28;20068;-71
2022/11/06 10:28:48;;;;;;;5.80;1.80;;;;;;;20.17;51.10;100912.91;5052123;28;20086;-71
2022/11/06 10:31:41;;;;;;;6.50;1.70;;;;;;;19.47;52.68;100915.28;5083622;28;20490;-71
2022/11/06 10:34:25;;;;;;;2.83;1.50;;;;;;;19.70;52.14;100908.06;5050401;28;20072;-71
2022/11/06 10:36:55;;;;;;;5.90;1.70;;;;;;;19.13;52.27;100908.84;5052157;28;20036;-71
2022/11/06 10:39:25;;;;;;;6.68;1.73;;;;;;;20.09;51.01;100899.16;5052606;28;20063;-72
2022/11/06 10:41:59;;;;;;;3.75;1.65;;;;;;;19.43;50.61;100887.19;5050678;28;20025;-73
2022/11/06 10:44:30;;;;;;;9.00;3.40;;;;;;;20.01;50.98;100885.41;5051509;28;20059;-71
2022/11/06 10:47:05;;;;;;;3.60;1.65;;;;;;;20.44;49.58;100875.31;5047349;28;20108;-71
2022/11/06 10:49:50;;;;;;;4.50;1.80;;;;;;;19.46;51.69;100879.09;5036803;28;20031;-71
2022/11/06 10:52:27;;;;;;;5.55;1.98;;;;;;;19.44;52.86;100870.38;5050911;28;20039;-71
2022/11/06 10:54:59;;;;;;;10.55;1.80;;;;;;;19.80;51.16;100866.94;5051649;28;20033;-71
2022/11/06 10:57:37;;;;;;;5.85;1.50;;;;;;;19.41;51.31;100869.66;5050665;28;20570;-70
2022/11/06 11:00:04;;;;;;;8.38;1.75;;;;;;;19.87;51.36;100861.34;5049973;28;20049;-71
2022/11/06 11:02:34;;;;;;;5.57;2.38;;;;;;;20.29;49.73;100868.97;5052549;28;20401;-71
2022/11/06 11:05:00;;;;;;;5.50;1.70;;;;;;;20.49;49.92;100865.28;5052732;28;20029;-71
2022/11/06 11:07:30;;;;;;;8.10;2.67;;;;;;;20.21;49.84;100867.63;5050801;28;20078;-71
2022/11/06 11:09:55;;;;;;;9.75;2.50;;;;;;;20.81;48.54;100865.47;5050867;28;20115;-71
2022/11/06 11:12:24;;;;;;;7.05;2.20;;;;;;;20.49;49.09;100865.28;5050559;28;20033;-71
2022/11/06 11:15:08;;;;;;;5.63;2.03;;;;;;;18.71;54.54;100859.50;5050461;28;20202;-71
2022/11/06 11:17:34;;;;;;;10.95;2.28;;;;;;;19.39;53.48;100856.47;5051077;28;20085;-71
2022/11/06 11:20:01;;;;;;;6.00;2.15;;;;;;;19.96;52.41;100855.56;5050541;28;20115;-71
2022/11/06 11:22:26;;;;;;;5.45;1.90;;;;;;;19.73;52.30;100857.53;5050074;28;20036;-71
2022/11/06 11:25:04;;;;;;;6.25;2.58;;;;;;;19.41;53.18;100845.78;5051324;28;20029;-71
2022/11/06 11:27:35;;;;;;;9.55;2.13;;;;;;;19.16;53.46;100854.88;5050405;28;20029;-71
2022/11/06 11:30:04;;;;;;;5.35;1.65;;;;;;;19.19;54.88;100853.88;5049710;28;20029;-71
2022/11/06 11:32:30;;;;;;;6.53;2.05;;;;;;;19.85;52.80;100845.47;5051182;28;20565;-71
2022/11/06 11:34:56;;;;;;;8.10;2.13;;;;;;;19.29;53.83;100849.88;5049808;28;20044;-71
2022/11/06 11:37:25;;;;;;;3.92;1.80;;;;;;;18.92;55.76;100846.28;5050763;28;20551;-69
2022/11/06 11:39:50;;;;;;;4.72;2.05;;;;;;;18.36;56.66;100831.91;5050252;28;20041;-70
2022/11/06 11:42:28;;;;;;;5.38;1.65;;;;;;;18.99;54.81;100826.50;5050868;28;20036;-70
2022/11/06 11:45:08;;;;;;;5.05;1.60;;;;;;;19.14;54.77;100822.31;5051875;28;20033;-70
2022/11/06 11:47:36;;;;;;;5.45;1.92;;;;;;;19.20;54.17;100823.81;5050766;28;20029;-70
2022/11/06 11:50:16;;;;;;;9.48;1.90;;;;;;;19.40;54.15;100807.84;5048960;28;20024;-70